createdAt,value
2023-04-18T00:02:23.670Z,7.95
2023-04-18T00:04:50.520Z,8.07
2023-04-18T00:07:17.560Z,8.57
2023-04-18T00:09:44.274Z,7.10
2023-04-18T00:12:11.301Z,7.25
2023-04-18T00:14:38.067Z,7.53
2023-04-18T00:17:08.811Z,8.40
2023-04-18T00:19:37.287Z,7.13
2023-04-18T00:22:03.651Z,7.82
2023-04-18T00:24:30.111Z,7.50
2023-04-18T00:26:57.149Z,7.18
2023-04-18T00:29:23.627Z,6.43
2023-04-18T00:31:50.093Z,6.50
2023-04-18T00:34:16.463Z,6.63
2023-04-18T00:36:42.883Z,6.43
2023-04-18T00:39:09.305Z,5.80
2023-04-18T00:41:35.700Z,5.78
2023-04-18T00:44:02.128Z,6.37
2023-04-18T00:46:28.520Z,5.57
2023-04-18T00:48:55.083Z,5.93
2023-04-18T00:51:21.665Z,5.70
2023-04-18T00:53:48.360Z,5.78
2023-04-18T00:56:14.897Z,6.17
2023-04-18T00:58:41.600Z,6.03
2023-04-18T01:01:09.344Z,6.80
2023-04-18T01:03:37.330Z,6.70
2023-04-18T01:06:04.210Z,6.50
2023-04-18T01:08:31.436Z,6.63
2023-04-18T01:10:57.922Z,7.05
2023-04-18T01:13:24.246Z,6.20
2023-04-18T01:15:53.938Z,6.20
2023-04-18T01:18:20.773Z,6.20
2023-04-18T01:20:49.360Z,5.83
2023-04-18T01:23:17.579Z,5.95
2023-04-18T01:25:45.346Z,6.03
2023-04-18T01:28:14.078Z,5.90
2023-04-18T01:30:40.759Z,5.85
2023-04-18T01:33:07.226Z,6.00
2023-04-18T01:35:33.674Z,5.72
2023-04-18T01:38:00.590Z,5.60
2023-04-18T01:40:27.359Z,5.57
2023-04-18T01:42:53.742Z,5.68
2023-04-18T01:45:20.416Z,5.30
2023-04-18T01:47:47.125Z,5.30
2023-04-18T01:50:13.963Z,5.72
2023-04-18T01:52:40.500Z,5.30
2023-04-18T01:55:07.243Z,4.90
2023-04-18T01:57:36.586Z,5.67
2023-04-18T02:00:06.575Z,5.28
2023-04-18T02:02:33.270Z,5.53
2023-04-18T02:04:59.989Z,5.25
2023-04-18T02:07:26.418Z,5.35
2023-04-18T02:09:52.762Z,5.33
2023-04-18T02:12:19.125Z,4.75
2023-04-18T02:14:45.548Z,5.40
2023-04-18T02:17:11.872Z,5.20
2023-04-18T02:19:38.267Z,4.82
2023-04-18T02:22:04.599Z,5.10
2023-04-18T02:24:31.116Z,5.20
2023-04-18T02:26:57.443Z,4.60
2023-04-18T02:29:23.827Z,5.22
2023-04-18T02:31:50.306Z,4.95
2023-04-18T02:34:16.717Z,5.50
2023-04-18T02:36:43.102Z,5.07
2023-04-18T02:39:09.431Z,4.97
2023-04-18T02:41:37.639Z,5.07
2023-04-18T02:44:04.044Z,5.15
2023-04-18T02:46:30.442Z,5.20
2023-04-18T02:48:56.808Z,4.78
2023-04-18T02:51:23.241Z,4.93
2023-04-18T02:53:51.810Z,5.10
2023-04-18T02:56:18.854Z,4.88
2023-04-18T02:58:45.269Z,4.70
2023-04-18T03:01:11.782Z,5.03
2023-04-18T03:03:38.124Z,4.85
2023-04-18T03:06:04.731Z,5.25
2023-04-18T03:08:31.131Z,5.25
2023-04-18T03:10:57.505Z,5.10
2023-04-18T03:13:24.872Z,5.35
2023-04-18T03:15:51.492Z,5.43
2023-04-18T03:18:17.972Z,5.00
2023-04-18T03:20:44.331Z,5.38
2023-04-18T03:23:10.793Z,5.10
2023-04-18T03:25:37.447Z,5.63
2023-04-18T03:28:04.511Z,5.47
2023-04-18T03:30:31.314Z,5.53
2023-04-18T03:32:58.647Z,5.50
2023-04-18T03:35:25.326Z,5.97
2023-04-18T03:37:51.727Z,5.65
2023-04-18T03:40:19.001Z,6.05
2023-04-18T03:42:45.413Z,5.78
2023-04-18T03:45:12.069Z,5.45
2023-04-18T03:47:38.538Z,5.70
2023-04-18T03:50:05.538Z,6.55
2023-04-18T03:52:31.897Z,5.90
2023-04-18T03:54:58.262Z,6.10
2023-04-18T03:57:24.671Z,5.78
2023-04-18T03:59:51.199Z,6.30
2023-04-18T04:02:17.583Z,5.60
2023-04-18T04:04:44.020Z,5.82
2023-04-18T04:07:11.980Z,6.05
2023-04-18T04:09:38.302Z,6.30
2023-04-18T04:12:04.992Z,5.63
2023-04-18T04:14:31.405Z,5.95
2023-04-18T04:16:57.829Z,6.03
2023-04-18T04:19:24.269Z,6.50
2023-04-18T04:21:50.659Z,5.85
2023-04-18T04:24:17.158Z,6.00
2023-04-18T04:26:43.622Z,6.10
2023-04-18T04:29:13.796Z,6.13
2023-04-18T04:31:40.139Z,6.10
2023-04-18T04:34:06.925Z,6.70
2023-04-18T04:36:33.433Z,6.50
2023-04-18T04:38:59.839Z,7.07
2023-04-18T04:41:27.657Z,6.55
2023-04-18T04:43:54.342Z,6.43
2023-04-18T04:46:21.198Z,6.93
2023-04-18T04:48:47.635Z,6.67
2023-04-18T04:51:14.055Z,6.43
2023-04-18T04:53:40.438Z,5.88
2023-04-18T04:56:07.071Z,6.43
2023-04-18T04:58:33.450Z,6.57
2023-04-18T05:00:59.864Z,6.23
2023-04-18T05:03:26.471Z,6.85
2023-04-18T05:05:53.438Z,6.60
2023-04-18T05:08:19.761Z,6.15
2023-04-18T05:10:47.542Z,6.55
2023-04-18T05:13:13.939Z,7.13
2023-04-18T05:15:40.585Z,6.65
2023-04-18T05:18:07.202Z,6.22
2023-04-18T05:20:33.610Z,6.75
2023-04-18T05:23:00.175Z,6.50
2023-04-18T05:25:26.874Z,6.60
2023-04-18T05:27:53.329Z,6.93
2023-04-18T05:30:19.805Z,7.13
2023-04-18T05:32:46.243Z,6.70
2023-04-18T05:35:12.675Z,6.50
2023-04-18T05:37:39.026Z,7.10
2023-04-18T05:40:06.478Z,6.78
2023-04-18T05:42:32.871Z,6.30
2023-04-18T05:44:59.366Z,6.60
2023-04-18T05:47:28.302Z,6.53
2023-04-18T05:49:55.164Z,7.17
2023-04-18T05:52:21.603Z,7.13
2023-04-18T05:54:48.026Z,7.47
2023-04-18T05:57:14.459Z,7.63
2023-04-18T05:59:40.816Z,6.75
2023-04-18T06:02:13.135Z,6.53
2023-04-18T06:04:41.806Z,7.32
2023-04-18T06:07:09.193Z,6.40
2023-04-18T06:09:35.751Z,7.07
2023-04-18T06:12:02.200Z,6.70
2023-04-18T06:14:28.696Z,6.43
2023-04-18T06:16:55.296Z,6.45
2023-04-18T06:19:21.957Z,6.43
2023-04-18T06:21:48.709Z,6.07
2023-04-18T06:24:15.475Z,6.70
2023-04-18T06:26:42.330Z,6.53
2023-04-18T06:29:08.722Z,6.97
2023-04-18T06:31:35.430Z,6.57
2023-04-18T06:34:01.857Z,5.90
2023-04-18T06:36:28.241Z,6.47
2023-04-18T06:38:54.620Z,6.40
2023-04-18T06:41:21.098Z,6.88
2023-04-18T06:44:02.056Z,6.10
2023-04-18T06:46:30.023Z,6.90
2023-04-18T06:48:56.584Z,6.28
2023-04-18T06:51:22.965Z,6.93
2023-04-18T06:53:52.524Z,6.38
2023-04-18T06:56:22.073Z,5.82
2023-04-18T06:58:49.097Z,5.55
2023-04-18T07:01:15.894Z,6.93
2023-04-18T07:03:42.370Z,5.77
2023-04-18T07:06:10.448Z,5.80
2023-04-18T07:08:36.989Z,5.20
2023-04-18T07:11:03.310Z,5.93
2023-04-18T07:13:29.858Z,6.07
2023-04-18T07:15:56.767Z,5.77
2023-04-18T07:18:34.104Z,5.25
2023-04-18T07:21:01.779Z,5.40
2023-04-18T07:23:28.180Z,5.15
2023-04-18T07:25:54.630Z,5.45
2023-04-18T07:28:21.106Z,5.67
2023-04-18T07:30:48.305Z,6.10
2023-04-18T07:33:14.781Z,5.43
2023-04-18T07:35:45.790Z,5.85
2023-04-18T07:38:12.958Z,4.80
2023-04-18T07:40:39.358Z,5.30
2023-04-18T07:43:05.839Z,5.25
2023-04-18T07:45:33.440Z,4.95
2023-04-18T07:47:59.802Z,5.30
2023-04-18T07:50:26.880Z,4.55
2023-04-18T07:52:53.264Z,5.20
2023-04-18T07:55:19.660Z,4.95
2023-04-18T07:57:50.299Z,4.88
2023-04-18T08:00:17.894Z,5.25
2023-04-18T08:02:44.409Z,4.70
2023-04-18T08:05:11.091Z,4.60
2023-04-18T08:07:37.945Z,4.55
2023-04-18T08:10:04.802Z,4.70
2023-04-18T08:12:31.213Z,4.78
2023-04-18T08:14:57.566Z,4.53
2023-04-18T08:17:23.981Z,4.40
2023-04-18T08:19:50.632Z,4.13
2023-04-18T08:22:16.999Z,5.40
2023-04-18T08:25:01.017Z,4.80
2023-04-18T08:27:30.593Z,4.82
2023-04-18T08:29:56.999Z,4.33
2023-04-18T08:32:23.344Z,4.30
2023-04-18T08:34:49.790Z,4.88
2023-04-18T08:37:16.245Z,4.50
2023-04-18T08:39:42.680Z,4.55
2023-04-18T08:42:10.764Z,4.60
2023-04-18T08:44:37.429Z,4.32
2023-04-18T08:47:03.828Z,4.70
2023-04-18T08:49:31.578Z,4.20
2023-04-18T08:52:01.074Z,4.80
2023-04-18T08:54:30.474Z,4.57
2023-04-18T08:57:07.512Z,4.18
2023-04-18T08:59:35.409Z,4.07
2023-04-18T09:02:04.226Z,4.45
2023-04-18T09:04:35.203Z,4.10
2023-04-18T09:07:06.574Z,3.80
2023-04-18T09:09:43.352Z,4.25
2023-04-18T09:12:11.318Z,4.53
2023-04-18T09:14:40.104Z,4.18
2023-04-18T09:17:06.876Z,4.45
2023-04-18T09:19:33.848Z,5.00
2023-04-18T09:22:04.336Z,4.07
2023-04-18T09:24:32.405Z,4.70
2023-04-18T09:26:59.740Z,4.32
2023-04-18T09:29:51.843Z,4.10
2023-04-18T09:32:29.455Z,4.13
2023-04-18T09:35:03.979Z,4.25
2023-04-18T09:37:31.034Z,4.00
2023-04-18T09:39:57.474Z,4.03
2023-04-18T09:42:24.633Z,4.10
2023-04-18T09:44:57.986Z,4.30
2023-04-18T09:47:24.384Z,4.68
2023-04-18T09:49:51.217Z,4.32
2023-04-18T09:52:19.691Z,3.90
2023-04-18T09:54:48.528Z,4.22
2023-04-18T09:57:16.849Z,3.80
2023-04-18T09:59:59.154Z,3.72
2023-04-18T10:02:28.816Z,3.40
2023-04-18T10:04:56.253Z,3.45
2023-04-18T10:07:24.784Z,3.90
2023-04-18T10:09:52.206Z,3.90
2023-04-18T10:12:19.549Z,4.20
2023-04-18T10:14:46.422Z,3.95
2023-04-18T10:17:14.869Z,4.05
2023-04-18T10:19:42.003Z,4.55
2023-04-18T10:22:08.436Z,4.60
2023-04-18T10:24:53.909Z,3.60
2023-04-18T10:27:48.237Z,4.28
2023-04-18T10:30:18.157Z,4.13
2023-04-18T10:32:47.656Z,4.18
2023-04-18T10:35:15.154Z,4.50
2023-04-18T10:37:59.632Z,4.60
2023-04-18T10:40:33.967Z,3.65
2023-04-18T10:43:01.014Z,4.00
2023-04-18T10:45:30.820Z,4.00
2023-04-18T10:48:21.937Z,3.20
2023-04-18T10:51:13.828Z,3.40
2023-04-18T10:53:49.886Z,3.50
2023-04-18T10:56:16.686Z,2.90
2023-04-18T10:58:48.504Z,2.63
2023-04-18T11:01:15.921Z,3.30
2023-04-18T11:03:42.530Z,3.20
2023-04-18T11:06:09.095Z,3.70
2023-04-18T11:08:35.838Z,3.55
2023-04-18T11:11:04.084Z,4.30
2023-04-18T11:13:31.795Z,4.10
2023-04-18T11:15:58.180Z,4.00
2023-04-18T11:18:24.779Z,4.07
2023-04-18T11:20:51.767Z,4.45
2023-04-18T11:23:24.980Z,4.00
2023-04-18T11:25:54.350Z,4.17
2023-04-18T11:28:21.920Z,4.18
2023-04-18T11:30:48.420Z,5.57
2023-04-18T11:33:15.096Z,4.40
2023-04-18T11:35:43.488Z,4.80
2023-04-18T11:38:12.529Z,4.97
2023-04-18T11:40:39.087Z,4.45
2023-04-18T11:43:07.113Z,4.65
2023-04-18T11:45:33.609Z,5.18
2023-04-18T11:48:00.809Z,5.53
2023-04-18T11:50:27.190Z,5.10
2023-04-18T11:52:54.873Z,5.10
2023-04-18T11:55:24.678Z,5.60
2023-04-18T11:57:57.994Z,5.35
2023-04-18T12:00:38.773Z,6.03
2023-04-18T12:03:07.859Z,5.40
2023-04-18T12:05:37.010Z,5.47
2023-04-18T12:08:18.575Z,5.70
2023-04-18T12:10:50.644Z,5.45
2023-04-18T12:13:17.541Z,5.47
2023-04-18T12:15:46.125Z,6.17
2023-04-18T12:18:14.460Z,5.78
2023-04-18T12:20:54.192Z,6.30
2023-04-18T12:23:38.967Z,11.80
2023-04-18T12:26:07.478Z,6.63
2023-04-18T12:28:35.358Z,11.60
2023-04-18T12:31:02.266Z,7.10
2023-04-18T12:33:28.723Z,6.05
2023-04-18T12:35:55.975Z,6.55
2023-04-18T12:38:23.392Z,5.93
2023-04-18T12:40:51.280Z,5.90
2023-04-18T12:43:18.788Z,6.22
2023-04-18T12:45:46.174Z,7.03
2023-04-18T12:48:12.955Z,6.57
2023-04-18T12:50:39.361Z,5.72
2023-04-18T12:53:06.054Z,6.23
2023-04-18T12:55:32.697Z,6.90
2023-04-18T12:57:59.738Z,6.25
2023-04-18T13:00:31.360Z,6.30
2023-04-18T13:02:58.525Z,6.30
2023-04-18T13:05:29.778Z,6.53
2023-04-18T13:08:15.179Z,6.55
2023-04-18T13:10:42.427Z,6.93
2023-04-18T13:13:08.866Z,6.78
2023-04-18T13:15:35.247Z,6.60
2023-04-18T13:18:05.077Z,7.20
2023-04-18T13:20:32.546Z,7.03
2023-04-18T13:22:58.896Z,7.63
2023-04-18T13:25:26.566Z,7.53
2023-04-18T13:27:53.357Z,8.20
2023-04-18T13:30:19.989Z,7.93
2023-04-18T13:32:47.028Z,7.90
2023-04-18T13:35:13.720Z,7.93
2023-04-18T13:37:40.283Z,7.13
2023-04-18T13:40:07.254Z,8.15
2023-04-18T13:42:34.265Z,7.87
2023-04-18T13:45:00.669Z,7.85
2023-04-18T13:47:27.161Z,7.60
2023-04-18T13:49:53.698Z,7.80
2023-04-18T13:52:20.129Z,7.75
2023-04-18T13:54:46.967Z,7.53
2023-04-18T13:57:14.568Z,8.32
2023-04-18T13:59:41.147Z,7.32
2023-04-18T14:02:10.753Z,7.65
2023-04-18T14:04:37.462Z,8.18
2023-04-18T14:07:06.446Z,7.50
2023-04-18T14:09:32.938Z,7.68
2023-04-18T14:11:59.497Z,7.50
2023-04-18T14:14:25.889Z,7.35
2023-04-18T14:16:53.512Z,7.88
2023-04-18T14:19:19.893Z,7.70
2023-04-18T14:21:47.455Z,7.75
2023-04-18T14:24:14.114Z,7.90
2023-04-18T14:26:41.828Z,7.18
2023-04-18T14:29:08.301Z,7.13
2023-04-18T14:31:35.243Z,7.97
2023-04-18T14:34:01.663Z,7.15
2023-04-18T14:36:28.222Z,7.32
2023-04-18T14:38:55.045Z,7.38
2023-04-18T14:41:21.506Z,7.50
2023-04-18T14:43:48.173Z,7.07
2023-04-18T14:46:18.333Z,7.35
2023-04-18T14:48:46.322Z,7.35
2023-04-18T14:51:13.030Z,6.85
2023-04-18T14:53:39.406Z,7.15
2023-04-18T14:56:06.028Z,6.90
2023-04-18T14:58:32.514Z,6.75
2023-04-18T15:00:59.038Z,6.70
2023-04-18T15:03:25.572Z,6.80
2023-04-18T15:05:53.184Z,7.25
2023-04-18T15:08:19.642Z,6.93
2023-04-18T15:10:47.533Z,6.63
2023-04-18T15:13:13.971Z,6.20
2023-04-18T15:15:40.539Z,6.70
2023-04-18T15:18:08.103Z,6.25
2023-04-18T15:20:36.871Z,6.40
2023-04-18T15:23:03.338Z,6.07
2023-04-18T15:25:30.447Z,6.78
2023-04-18T15:27:58.206Z,6.70
2023-04-18T15:30:24.993Z,7.07
2023-04-18T15:32:52.103Z,6.37
2023-04-18T15:35:18.583Z,5.70
2023-04-18T15:37:44.961Z,6.05
2023-04-18T15:40:16.032Z,6.57
2023-04-18T15:42:43.553Z,6.55
2023-04-18T15:45:10.835Z,6.03
2023-04-18T15:47:38.655Z,6.28
2023-04-18T15:50:05.733Z,6.32
2023-04-18T15:52:32.176Z,5.97
2023-04-18T15:54:58.654Z,6.32
2023-04-18T15:57:25.030Z,6.30
2023-04-18T15:59:51.622Z,6.32
2023-04-18T16:02:18.156Z,6.43
2023-04-18T16:04:44.654Z,6.28
2023-04-18T16:07:12.126Z,6.03
2023-04-18T16:09:38.544Z,6.83
2023-04-18T16:12:05.751Z,6.35
2023-04-18T16:14:33.359Z,6.07
2023-04-18T16:17:00.117Z,6.07
2023-04-18T16:19:26.565Z,6.57
2023-04-18T16:21:52.957Z,6.43
2023-04-18T16:24:19.494Z,5.90
2023-04-18T16:26:45.830Z,5.70
2023-04-18T16:29:12.199Z,5.80
2023-04-18T16:31:38.680Z,5.05
2023-04-18T16:34:05.259Z,6.10
2023-04-18T16:36:34.261Z,5.93
2023-04-18T16:39:00.834Z,5.38
2023-04-18T16:41:27.258Z,6.03
2023-04-18T16:43:53.922Z,5.57
2023-04-18T16:46:20.358Z,6.10
2023-04-18T16:48:46.856Z,5.97
2023-04-18T16:51:13.398Z,6.25
2023-04-18T16:53:39.816Z,5.22
2023-04-18T16:56:07.868Z,5.57
2023-04-18T16:58:34.390Z,5.80
2023-04-18T17:01:04.060Z,5.55
2023-04-18T17:03:30.511Z,5.82
2023-04-18T17:05:57.054Z,5.95
2023-04-18T17:08:25.748Z,5.30
2023-04-18T17:10:52.766Z,5.50
2023-04-18T17:13:19.205Z,5.85
2023-04-18T17:15:45.629Z,5.25
2023-04-18T17:18:12.165Z,5.65
2023-04-18T17:20:38.623Z,5.80
2023-04-18T17:23:05.034Z,5.50
2023-04-18T17:25:31.786Z,5.57
2023-04-18T17:27:58.644Z,5.60
2023-04-18T17:30:25.064Z,5.47
2023-04-18T17:32:51.583Z,5.20
2023-04-18T17:35:18.146Z,5.57
2023-04-18T17:37:47.485Z,5.75
2023-04-18T17:40:14.133Z,5.60
2023-04-18T17:42:41.008Z,5.43
2023-04-18T17:45:09.038Z,5.90
2023-04-18T17:47:36.492Z,5.53
2023-04-18T17:50:04.051Z,6.07
2023-04-18T17:52:30.545Z,6.40
2023-04-18T17:54:57.014Z,5.30
2023-04-18T17:57:24.239Z,5.95
2023-04-18T17:59:50.655Z,5.57
2023-04-18T18:02:17.193Z,5.60
2023-04-18T18:04:43.678Z,5.63
2023-04-18T18:07:10.266Z,6.07
2023-04-18T18:09:36.933Z,6.10
2023-04-18T18:12:03.473Z,5.73
2023-04-18T18:14:29.905Z,5.68
2023-04-18T18:16:56.530Z,5.82
2023-04-18T18:19:23.063Z,5.97
2023-04-18T18:21:49.571Z,6.13
2023-04-18T18:24:16.306Z,6.00
2023-04-18T18:26:42.769Z,6.18
2023-04-18T18:29:09.400Z,5.88
2023-04-18T18:31:36.555Z,6.03
2023-04-18T18:34:03.051Z,5.82
2023-04-18T18:36:29.825Z,6.07
2023-04-18T18:38:56.215Z,5.72
2023-04-18T18:41:22.940Z,5.90
2023-04-18T18:43:50.143Z,6.82
2023-04-18T18:46:16.885Z,6.72
2023-04-18T18:48:43.682Z,5.90
2023-04-18T18:51:10.768Z,5.78
2023-04-18T18:53:39.657Z,6.25
2023-04-18T18:56:08.520Z,5.88
2023-04-18T18:58:35.619Z,6.40
2023-04-18T19:01:03.207Z,5.73
2023-04-18T19:03:29.893Z,6.13
2023-04-18T19:05:56.618Z,5.75
2023-04-18T19:08:23.199Z,5.93
2023-04-18T19:10:50.522Z,5.43
2023-04-18T19:13:22.313Z,5.47
2023-04-18T19:15:48.747Z,5.40
2023-04-18T19:18:15.284Z,5.45
2023-04-18T19:20:41.758Z,5.22
2023-04-18T19:23:08.143Z,5.13
2023-04-18T19:25:34.489Z,5.40
2023-04-18T19:28:00.864Z,4.60
2023-04-18T19:30:27.239Z,3.95
2023-04-18T19:32:53.600Z,4.57
2023-04-18T19:35:20.083Z,4.50
2023-04-18T19:37:46.716Z,4.93
2023-04-18T19:40:14.075Z,4.65
2023-04-18T19:42:40.980Z,3.78
2023-04-18T19:45:07.841Z,4.22
2023-04-18T19:47:34.361Z,4.60
2023-04-18T19:50:01.370Z,4.13
2023-04-18T19:52:27.726Z,4.20
2023-04-18T19:54:54.884Z,4.80
2023-04-18T19:57:21.731Z,4.45
2023-04-18T19:59:48.104Z,4.05
2023-04-18T20:02:14.478Z,4.37
2023-04-18T20:04:41.793Z,4.25
2023-04-18T20:07:08.298Z,4.68
2023-04-18T20:09:34.659Z,4.70
2023-04-18T20:12:02.538Z,4.80
2023-04-18T20:14:29.525Z,4.90
2023-04-18T20:16:56.523Z,4.72
2023-04-18T20:19:26.733Z,4.60
2023-04-18T20:21:53.115Z,4.78
2023-04-18T20:24:21.111Z,5.03
2023-04-18T20:26:47.774Z,4.70
2023-04-18T20:29:14.457Z,5.13
2023-04-18T20:31:42.423Z,4.50
2023-04-18T20:34:09.819Z,4.85
2023-04-18T20:36:41.286Z,4.50
2023-04-18T20:39:12.616Z,4.77
2023-04-18T20:41:49.228Z,5.05
2023-04-18T20:44:16.785Z,4.63
2023-04-18T20:46:43.161Z,4.60
2023-04-18T20:49:09.808Z,4.63
2023-04-18T20:51:37.129Z,4.30
2023-04-18T20:54:04.611Z,4.53
2023-04-18T20:56:31.961Z,4.72
2023-04-18T20:58:58.354Z,4.82
2023-04-18T21:01:24.884Z,4.68
2023-04-18T21:03:51.545Z,4.37
2023-04-18T21:06:19.051Z,3.95
2023-04-18T21:08:45.739Z,3.92
2023-04-18T21:11:12.260Z,4.22
2023-04-18T21:13:38.681Z,4.13
2023-04-18T21:16:07.643Z,4.13
2023-04-18T21:18:34.270Z,4.50
2023-04-18T21:21:00.841Z,3.83
2023-04-18T21:23:27.306Z,3.63
2023-04-18T21:25:53.761Z,4.28
2023-04-18T21:28:20.425Z,4.20
2023-04-18T21:30:46.927Z,4.05
2023-04-18T21:33:13.814Z,3.85
2023-04-18T21:35:40.268Z,3.95
2023-04-18T21:38:06.629Z,3.70
2023-04-18T21:40:33.345Z,3.77
2023-04-18T21:42:59.745Z,4.30
2023-04-18T21:45:26.303Z,3.72
2023-04-18T21:47:52.842Z,3.88
2023-04-18T21:50:19.470Z,4.63
2023-04-18T21:52:45.860Z,4.17
2023-04-18T21:55:12.296Z,4.20
2023-04-18T21:57:38.705Z,3.92
2023-04-18T22:00:07.807Z,4.13
2023-04-18T22:02:35.807Z,4.43
2023-04-18T22:05:02.860Z,4.40
2023-04-18T22:07:29.494Z,3.97
2023-04-18T22:09:58.426Z,4.18
2023-04-18T22:12:26.323Z,4.22
2023-04-18T22:14:52.887Z,4.28
2023-04-18T22:17:19.359Z,4.00
2023-04-18T22:19:47.172Z,4.75
2023-04-18T22:22:13.479Z,3.95
2023-04-18T22:24:39.833Z,3.70
2023-04-18T22:27:06.386Z,3.78
2023-04-18T22:29:32.872Z,4.33
2023-04-18T22:31:59.217Z,4.55
2023-04-18T22:34:25.581Z,4.20
2023-04-18T22:36:52.011Z,4.00
2023-04-18T22:39:18.330Z,4.55
2023-04-18T22:41:44.840Z,4.23
2023-04-18T22:44:11.224Z,4.38
2023-04-18T22:46:38.473Z,4.10
2023-04-18T22:49:05.542Z,4.20
2023-04-18T22:51:32.556Z,4.47
2023-04-18T22:53:58.989Z,4.20
2023-04-18T22:56:25.462Z,4.28
2023-04-18T22:58:51.813Z,4.65
2023-04-18T23:01:18.493Z,4.38
2023-04-18T23:03:45.492Z,4.63
2023-04-18T23:06:11.977Z,4.53
2023-04-18T23:08:38.320Z,4.35
2023-04-18T23:11:04.724Z,4.32
2023-04-18T23:13:31.080Z,4.63
2023-04-18T23:15:57.555Z,4.93
2023-04-18T23:18:24.024Z,4.33
2023-04-18T23:20:50.368Z,4.88
2023-04-18T23:23:16.793Z,4.28
2023-04-18T23:25:44.078Z,4.47
2023-04-18T23:28:10.594Z,4.18
2023-04-18T23:30:37.259Z,4.80
2023-04-18T23:33:03.833Z,4.30
2023-04-18T23:35:30.537Z,4.50
2023-04-18T23:37:57.286Z,4.78
2023-04-18T23:40:23.701Z,4.65
2023-04-18T23:42:50.153Z,4.70
2023-04-18T23:45:16.643Z,5.25
2023-04-18T23:47:43.057Z,4.70
2023-04-18T23:50:09.937Z,4.45
2023-04-18T23:52:38.154Z,4.85
2023-04-18T23:55:04.843Z,4.30
2023-04-18T23:57:31.220Z,4.45
2023-04-18T23:59:57.586Z,5.55
